Overview Statistics Trail Chart Weather Telemetry Raw packets
 

This is the latest recevied weather packets stored in our database for station/object N7ZEF. If no packets are shown the sender has not sent any weather packets the latest 10 day(s).

<< 17 18 19 20 21 22 23 >>
Time Temp. Humidity Pressure Rain* Wind** Luminosity Snow
1777905797 12.22° C 35% 1013.5 hPa 0 mm - - -
1777905195 11.67° C 36% 1013.5 hPa 0 mm - - -
1777904594 11.67° C 37% 1013.5 hPa 0 mm - - -
1777903993 11.11° C 36% 1013.5 hPa 0 mm - - -
1777903391 10.56° C 39% 1013.3 hPa 0 mm - - -
1777902792 10° C 39% 1013.2 hPa 0 mm - - -
1777902188 8.89° C 41% 1013.2 hPa 0 mm - - -
1777901587 7.78° C 46% 1013.3 hPa 0 mm - - -
1777900986 6.67° C 48% 1013.3 hPa 0 mm - - -
1777900384 6.67° C 49% 1013.1 hPa 0 mm - - -
1777899783 5.56° C 50% 1013 hPa 0 mm - - -
1777899181 4.44° C 53% 1012.8 hPa 0 mm - - -
1777898580 3.89° C 56% 1012.6 hPa 0 mm - - -
1777897983 3.33° C 56% 1012.6 hPa 0 mm - - -
1777897377 3.89° C 54% 1012.6 hPa 0 mm - - -
1777896776 3.89° C 52% 1012.3 hPa 0 mm - - -
1777896175 4.44° C 51% 1012.3 hPa 0 mm - - -
1777895573 5.56° C 49% 1012.3 hPa 0 mm - - -
1777894972 5.56° C 48% 1012.3 hPa 0 mm - - -
1777894370 5.56° C 48% 1012.2 hPa 0 mm - - -
1777893769 5° C 48% 1012.2 hPa 0 mm - - -
1777893168 5° C 48% 1012.2 hPa 0 mm - - -
1777892566 5° C 48% 1012.2 hPa 0 mm - - -
1777891965 5° C 48% 1012.3 hPa 0 mm - - -
1777891363 4.44° C 50% 1012.2 hPa 0 mm - - -

* Rain latest hour (hover to see other rain measurements)
** Current wind speed in m/s (hover to see current wind gust speed)